sensor_id;sensor_type;location;lat;lon;timestamp;temperature;humidity
6536;DHT22;34330;52.08032700;5.40923460;2022-12-13T00:01:45;-0.50;77.60
6536;DHT22;34330;52.08032700;5.40923460;2022-12-13T00:04:18;-0.50;77.70
6536;DHT22;34330;52.08032700;5.40923460;2022-12-13T00:06:55;-0.60;77.50
6536;DHT22;34330;52.08032700;5.40923460;2022-12-13T00:09:26;-0.70;77.60
6536;DHT22;34330;52.08032700;5.40923460;2022-12-13T00:12:06;-0.60;77.80
6536;DHT22;34330;52.08032700;5.40923460;2022-12-13T00:14:39;-0.60;77.90
6536;DHT22;34330;52.08032700;5.40923460;2022-12-13T00:22:08;-0.70;78.00
6536;DHT22;34330;52.08032700;5.40923460;2022-12-13T00:24:41;-0.60;78.20
6536;DHT22;34330;52.08032700;5.40923460;2022-12-13T00:27:14;-0.70;78.10
6536;DHT22;34330;52.08032700;5.40923460;2022-12-13T00:32:16;-0.70;77.80
6536;DHT22;34330;52.08032700;5.40923460;2022-12-13T00:34:51;-0.70;77.90
6536;DHT22;34330;52.08032700;5.40923460;2022-12-13T00:37:25;-0.70;77.60
6536;DHT22;34330;52.08032700;5.40923460;2022-12-13T00:42:25;-0.70;77.90
6536;DHT22;34330;52.08032700;5.40923460;2022-12-13T00:49:54;-0.80;77.70
6536;DHT22;34330;52.08032700;5.40923460;2022-12-13T00:57:25;-0.80;77.80
6536;DHT22;34330;52.08032700;5.40923460;2022-12-13T01:00:03;-1.00;77.60
6536;DHT22;34330;52.08032700;5.40923460;2022-12-13T01:05:11;-0.80;77.50
6536;DHT22;34330;52.08032700;5.40923460;2022-12-13T01:07:42;-0.90;77.70
6536;DHT22;34330;52.08032700;5.40923460;2022-12-13T01:10:11;-0.90;77.60
6536;DHT22;34330;52.08032700;5.40923460;2022-12-13T01:12:47;-0.90;77.70
6536;DHT22;34330;52.08032700;5.40923460;2022-12-13T01:15:22;-1.00;77.60
6536;DHT22;34330;52.08032700;5.40923460;2022-12-13T01:17:51;-1.00;77.40
6536;DHT22;34330;52.08032700;5.40923460;2022-12-13T01:20:20;-0.90;77.70
6536;DHT22;34330;52.08032700;5.40923460;2022-12-13T01:22:53;-1.00;77.50
6536;DHT22;34330;52.08032700;5.40923460;2022-12-13T01:27:56;-1.00;77.40
6536;DHT22;34330;52.08032700;5.40923460;2022-12-13T01:30:28;-1.00;77.40
6536;DHT22;34330;52.08032700;5.40923460;2022-12-13T01:33:12;-1.00;77.40
6536;DHT22;34330;52.08032700;5.40923460;2022-12-13T01:35:44;-1.10;77.20
6536;DHT22;34330;52.08032700;5.40923460;2022-12-13T01:38:26;-1.10;77.30
6536;DHT22;34330;52.08032700;5.40923460;2022-12-13T01:43:30;-1.10;77.30
6536;DHT22;34330;52.08032700;5.40923460;2022-12-13T01:46:21;-2.70;75.60
6536;DHT22;34330;52.08032700;5.40923460;2022-12-13T01:49:00;-1.10;77.40
6536;DHT22;34330;52.08032700;5.40923460;2022-12-13T01:51:53;-1.10;77.40
6536;DHT22;34330;52.08032700;5.40923460;2022-12-13T01:54:26;-1.20;77.30
6536;DHT22;34330;52.08032700;5.40923460;2022-12-13T01:57:08;-1.20;77.10
6536;DHT22;34330;52.08032700;5.40923460;2022-12-13T01:59:45;-1.10;77.30
6536;DHT22;34330;52.08032700;5.40923460;2022-12-13T02:02:45;-1.20;77.20
6536;DHT22;34330;52.08032700;5.40923460;2022-12-13T02:05:33;-1.20;77.30
6536;DHT22;34330;52.08032700;5.40923460;2022-12-13T02:08:04;-1.20;77.30
6536;DHT22;34330;52.08032700;5.40923460;2022-12-13T02:13:06;-1.30;77.10
6536;DHT22;34330;52.08032700;5.40923460;2022-12-13T02:15:42;-1.30;76.90
6536;DHT22;34330;52.08032700;5.40923460;2022-12-13T02:18:38;-1.30;77.00
6536;DHT22;34330;52.08032700;5.40923460;2022-12-13T02:21:22;-1.40;77.00
6536;DHT22;34330;52.08032700;5.40923460;2022-12-13T02:24:14;-1.40;77.10
6536;DHT22;34330;52.08032700;5.40923460;2022-12-13T02:27:29;-1.40;77.00
6536;DHT22;34330;52.08032700;5.40923460;2022-12-13T02:30:24;-1.40;77.10
6536;DHT22;34330;52.08032700;5.40923460;2022-12-13T02:33:29;-1.40;76.90
6536;DHT22;34330;52.08032700;5.40923460;2022-12-13T02:36:06;-1.60;76.70
6536;DHT22;34330;52.08032700;5.40923460;2022-12-13T02:38:46;-1.50;76.50
6536;DHT22;34330;52.08032700;5.40923460;2022-12-13T02:41:27;-1.50;76.80
6536;DHT22;34330;52.08032700;5.40923460;2022-12-13T02:44:09;-1.50;77.00
6536;DHT22;34330;52.08032700;5.40923460;2022-12-13T02:46:58;1.20;78.80
6536;DHT22;34330;52.08032700;5.40923460;2022-12-13T02:49:38;-1.60;76.90
6536;DHT22;34330;52.08032700;5.40923460;2022-12-13T02:52:09;-1.60;76.90
6536;DHT22;34330;52.08032700;5.40923460;2022-12-13T02:54:49;-1.60;76.90
6536;DHT22;34330;52.08032700;5.40923460;2022-12-13T02:57:28;-1.60;77.00
6536;DHT22;34330;52.08032700;5.40923460;2022-12-13T03:00:00;-1.60;77.10
6536;DHT22;34330;52.08032700;5.40923460;2022-12-13T03:02:37;-1.60;76.90
6536;DHT22;34330;52.08032700;5.40923460;2022-12-13T03:05:26;-1.70;77.10
6536;DHT22;34330;52.08032700;5.40923460;2022-12-13T03:08:22;-1.60;77.20
6536;DHT22;34330;52.08032700;5.40923460;2022-12-13T03:11:08;-1.60;77.20
6536;DHT22;34330;52.08032700;5.40923460;2022-12-13T03:13:53;-1.70;77.10
6536;DHT22;34330;52.08032700;5.40923460;2022-12-13T03:16:32;-1.60;77.00
6536;DHT22;34330;52.08032700;5.40923460;2022-12-13T03:19:18;-1.70;76.90
6536;DHT22;34330;52.08032700;5.40923460;2022-12-13T03:24:34;-1.70;76.70
6536;DHT22;34330;52.08032700;5.40923460;2022-12-13T03:27:07;-1.70;76.60
6536;DHT22;34330;52.08032700;5.40923460;2022-12-13T03:32:04;-1.70;76.70
6536;DHT22;34330;52.08032700;5.40923460;2022-12-13T03:34:39;-1.80;76.70
6536;DHT22;34330;52.08032700;5.40923460;2022-12-13T03:37:26;-1.70;76.80
6536;DHT22;34330;52.08032700;5.40923460;2022-12-13T03:39:58;-1.80;76.50
6536;DHT22;34330;52.08032700;5.40923460;2022-12-13T03:42:36;-1.90;76.70
6536;DHT22;34330;52.08032700;5.40923460;2022-12-13T03:45:12;1.70;79.60
6536;DHT22;34330;52.08032700;5.40923460;2022-12-13T03:47:51;-1.80;76.80
6536;DHT22;34330;52.08032700;5.40923460;2022-12-13T03:50:22;-1.90;76.80
6536;DHT22;34330;52.08032700;5.40923460;2022-12-13T03:52:57;-1.80;76.80
6536;DHT22;34330;52.08032700;5.40923460;2022-12-13T03:55:25;-1.80;76.90
6536;DHT22;34330;52.08032700;5.40923460;2022-12-13T03:57:56;-1.80;76.90
6536;DHT22;34330;52.08032700;5.40923460;2022-12-13T04:00:32;-1.80;76.90
6536;DHT22;34330;52.08032700;5.40923460;2022-12-13T04:03:25;-1.90;76.70
6536;DHT22;34330;52.08032700;5.40923460;2022-12-13T04:06:04;-1.90;76.80
6536;DHT22;34330;52.08032700;5.40923460;2022-12-13T04:16:51;-2.00;76.00
6536;DHT22;34330;52.08032700;5.40923460;2022-12-13T04:21:52;-0.80;77.30
6536;DHT22;34330;52.08032700;5.40923460;2022-12-13T04:24:24;-2.00;76.40
6536;DHT22;34330;52.08032700;5.40923460;2022-12-13T04:26:59;-2.10;76.30
6536;DHT22;34330;52.08032700;5.40923460;2022-12-13T04:29:29;-2.00;76.40
6536;DHT22;34330;52.08032700;5.40923460;2022-12-13T04:32:02;-2.00;76.40
6536;DHT22;34330;52.08032700;5.40923460;2022-12-13T04:35:03;-2.10;76.40
6536;DHT22;34330;52.08032700;5.40923460;2022-12-13T04:37:34;-2.10;76.40
6536;DHT22;34330;52.08032700;5.40923460;2022-12-13T04:40:07;-2.10;76.40
6536;DHT22;34330;52.08032700;5.40923460;2022-12-13T04:42:40;-5.10;73.80
6536;DHT22;34330;52.08032700;5.40923460;2022-12-13T04:45:24;-2.10;76.50
6536;DHT22;34330;52.08032700;5.40923460;2022-12-13T04:53:04;-2.10;76.40
6536;DHT22;34330;52.08032700;5.40923460;2022-12-13T05:08:06;-2.10;76.50
6536;DHT22;34330;52.08032700;5.40923460;2022-12-13T05:10:54;-2.20;76.40
6536;DHT22;34330;52.08032700;5.40923460;2022-12-13T05:13:30;-2.20;76.00
6536;DHT22;34330;52.08032700;5.40923460;2022-12-13T05:16:16;-2.30;76.40
6536;DHT22;34330;52.08032700;5.40923460;2022-12-13T05:21:19;-2.20;76.50
6536;DHT22;34330;52.08032700;5.40923460;2022-12-13T05:23:55;-2.20;76.20
6536;DHT22;34330;52.08032700;5.40923460;2022-12-13T05:34:07;-2.30;76.00
6536;DHT22;34330;52.08032700;5.40923460;2022-12-13T05:36:40;-2.30;75.90
6536;DHT22;34330;52.08032700;5.40923460;2022-12-13T05:39:13;-2.30;75.90
6536;DHT22;34330;52.08032700;5.40923460;2022-12-13T05:41:57;-2.30;75.80
6536;DHT22;34330;52.08032700;5.40923460;2022-12-13T05:44:31;-2.30;76.10
6536;DHT22;34330;52.08032700;5.40923460;2022-12-13T05:49:33;-2.50;75.90
6536;DHT22;34330;52.08032700;5.40923460;2022-12-13T05:52:23;-5.70;72.70
6536;DHT22;34330;52.08032700;5.40923460;2022-12-13T05:54:58;0.70;78.60
6536;DHT22;34330;52.08032700;5.40923460;2022-12-13T06:00:03;-6.20;72.30
6536;DHT22;34330;52.08032700;5.40923460;2022-12-13T06:02:57;-2.50;75.50
6536;DHT22;34330;52.08032700;5.40923460;2022-12-13T06:10:29;-2.60;75.60
6536;DHT22;34330;52.08032700;5.40923460;2022-12-13T06:13:01;-2.60;75.50
6536;DHT22;34330;52.08032700;5.40923460;2022-12-13T06:16:00;-4.10;74.00
6536;DHT22;34330;52.08032700;5.40923460;2022-12-13T06:18:50;-2.70;75.40
6536;DHT22;34330;52.08032700;5.40923460;2022-12-13T06:21:33;-2.60;75.90
6536;DHT22;34330;52.08032700;5.40923460;2022-12-13T06:24:14;-2.60;76.00
6536;DHT22;34330;52.08032700;5.40923460;2022-12-13T06:26:53;-2.70;75.70
6536;DHT22;34330;52.08032700;5.40923460;2022-12-13T06:29:38;-2.60;76.10
6536;DHT22;34330;52.08032700;5.40923460;2022-12-13T06:34:42;-2.70;76.10
6536;DHT22;34330;52.08032700;5.40923460;2022-12-13T06:37:56;-2.70;76.20
6536;DHT22;34330;52.08032700;5.40923460;2022-12-13T06:43:04;-2.40;76.20
6536;DHT22;34330;52.08032700;5.40923460;2022-12-13T06:51:02;-2.70;76.10
6536;DHT22;34330;52.08032700;5.40923460;2022-12-13T06:53:52;-2.70;76.00
6536;DHT22;34330;52.08032700;5.40923460;2022-12-13T06:59:04;-2.70;76.00
6536;DHT22;34330;52.08032700;5.40923460;2022-12-13T07:01:53;-2.70;76.10
6536;DHT22;34330;52.08032700;5.40923460;2022-12-13T07:04:38;-2.80;76.00
6536;DHT22;34330;52.08032700;5.40923460;2022-12-13T07:07:10;1.00;79.50
6536;DHT22;34330;52.08032700;5.40923460;2022-12-13T07:09:55;-2.80;76.00
6536;DHT22;34330;52.08032700;5.40923460;2022-12-13T07:12:24;-2.60;76.00
6536;DHT22;34330;52.08032700;5.40923460;2022-12-13T07:14:57;-2.70;76.10
6536;DHT22;34330;52.08032700;5.40923460;2022-12-13T07:20:10;0.80;79.20
6536;DHT22;34330;52.08032700;5.40923460;2022-12-13T07:22:54;-2.80;76.10
6536;DHT22;34330;52.08032700;5.40923460;2022-12-13T07:28:03;-2.80;76.20
6536;DHT22;34330;52.08032700;5.40923460;2022-12-13T07:30:43;-2.80;76.10
6536;DHT22;34330;52.08032700;5.40923460;2022-12-13T07:36:01;-2.80;76.10
6536;DHT22;34330;52.08032700;5.40923460;2022-12-13T07:38:55;-2.80;75.90
6536;DHT22;34330;52.08032700;5.40923460;2022-12-13T07:41:24;-2.90;75.80
6536;DHT22;34330;52.08032700;5.40923460;2022-12-13T07:46:34;-2.90;75.90
6536;DHT22;34330;52.08032700;5.40923460;2022-12-13T07:49:14;-2.90;75.90
6536;DHT22;34330;52.08032700;5.40923460;2022-12-13T07:51:54;-2.90;75.80
6536;DHT22;34330;52.08032700;5.40923460;2022-12-13T07:54:35;-3.00;75.80
6536;DHT22;34330;52.08032700;5.40923460;2022-12-13T07:57:10;-2.90;76.00
6536;DHT22;34330;52.08032700;5.40923460;2022-12-13T07:59:56;-3.00;76.00
6536;DHT22;34330;52.08032700;5.40923460;2022-12-13T08:02:43;-3.00;76.10
6536;DHT22;34330;52.08032700;5.40923460;2022-12-13T08:05:25;-3.00;76.30
6536;DHT22;34330;52.08032700;5.40923460;2022-12-13T08:08:10;-3.00;76.40
6536;DHT22;34330;52.08032700;5.40923460;2022-12-13T08:11:02;-2.90;76.60
6536;DHT22;34330;52.08032700;5.40923460;2022-12-13T08:16:10;-2.90;76.60
6536;DHT22;34330;52.08032700;5.40923460;2022-12-13T08:19:00;-4.40;74.80
6536;DHT22;34330;52.08032700;5.40923460;2022-12-13T08:21:37;-2.90;76.70
6536;DHT22;34330;52.08032700;5.40923460;2022-12-13T08:24:24;-1.80;77.80
6536;DHT22;34330;52.08032700;5.40923460;2022-12-13T08:27:00;-2.90;76.90
6536;DHT22;34330;52.08032700;5.40923460;2022-12-13T08:32:05;-2.80;77.20
6536;DHT22;34330;52.08032700;5.40923460;2022-12-13T08:35:13;-0.90;78.60
6536;DHT22;34330;52.08032700;5.40923460;2022-12-13T08:37:57;-2.80;77.30
6536;DHT22;34330;52.08032700;5.40923460;2022-12-13T08:40:33;-2.70;77.50
6536;DHT22;34330;52.08032700;5.40923460;2022-12-13T08:43:02;-2.60;77.60
6536;DHT22;34330;52.08032700;5.40923460;2022-12-13T08:48:24;-2.60;77.80
6536;DHT22;34330;52.08032700;5.40923460;2022-12-13T08:51:02;-2.60;77.60
6536;DHT22;34330;52.08032700;5.40923460;2022-12-13T08:53:38;-2.70;77.50
6536;DHT22;34330;52.08032700;5.40923460;2022-12-13T08:56:10;-2.50;78.00
6536;DHT22;34330;52.08032700;5.40923460;2022-12-13T09:03:54;-2.40;78.40
6536;DHT22;34330;52.08032700;5.40923460;2022-12-13T09:11:38;-2.10;79.10
6536;DHT22;34330;52.08032700;5.40923460;2022-12-13T09:14:08;-2.10;79.30
6536;DHT22;34330;52.08032700;5.40923460;2022-12-13T09:19:25;-2.00;79.60
6536;DHT22;34330;52.08032700;5.40923460;2022-12-13T09:21:58;-2.00;79.50
6536;DHT22;34330;52.08032700;5.40923460;2022-12-13T09:29:36;-0.50;81.10
6536;DHT22;34330;52.08032700;5.40923460;2022-12-13T09:32:31;-1.80;80.10
6536;DHT22;34330;52.08032700;5.40923460;2022-12-13T09:35:08;-1.80;80.40
6536;DHT22;34330;52.08032700;5.40923460;2022-12-13T09:40:26;-1.60;80.70
6536;DHT22;34330;52.08032700;5.40923460;2022-12-13T09:43:17;-1.50;81.00
6536;DHT22;34330;52.08032700;5.40923460;2022-12-13T09:46:06;-1.40;81.20
6536;DHT22;34330;52.08032700;5.40923460;2022-12-13T09:48:54;-1.30;81.20
6536;DHT22;34330;52.08032700;5.40923460;2022-12-13T09:51:31;-1.30;81.40
6536;DHT22;34330;52.08032700;5.40923460;2022-12-13T09:54:19;-1.20;81.60
6536;DHT22;34330;52.08032700;5.40923460;2022-12-13T09:57:19;-1.20;81.70
6536;DHT22;34330;52.08032700;5.40923460;2022-12-13T10:02:42;-1.10;82.40
6536;DHT22;34330;52.08032700;5.40923460;2022-12-13T10:05:23;-1.00;82.60
6536;DHT22;34330;52.08032700;5.40923460;2022-12-13T10:08:12;-0.90;82.80
6536;DHT22;34330;52.08032700;5.40923460;2022-12-13T10:10:47;-0.90;82.80
6536;DHT22;34330;52.08032700;5.40923460;2022-12-13T10:13:22;-0.90;83.00
6536;DHT22;34330;52.08032700;5.40923460;2022-12-13T10:16:01;-0.80;83.20
6536;DHT22;34330;52.08032700;5.40923460;2022-12-13T10:18:40;-0.70;83.40
6536;DHT22;34330;52.08032700;5.40923460;2022-12-13T10:21:26;-0.70;83.60
6536;DHT22;34330;52.08032700;5.40923460;2022-12-13T10:24:19;-1.70;82.80
6536;DHT22;34330;52.08032700;5.40923460;2022-12-13T10:27:10;-0.60;83.80
6536;DHT22;34330;52.08032700;5.40923460;2022-12-13T10:30:00;-0.50;84.00
6536;DHT22;34330;52.08032700;5.40923460;2022-12-13T10:32:30;-0.50;84.00
6536;DHT22;34330;52.08032700;5.40923460;2022-12-13T10:35:23;-0.40;84.30
6536;DHT22;34330;52.08032700;5.40923460;2022-12-13T10:38:25;-0.30;84.40
6536;DHT22;34330;52.08032700;5.40923460;2022-12-13T10:43:35;-0.30;84.60
6536;DHT22;34330;52.08032700;5.40923460;2022-12-13T10:49:04;-0.20;84.40
6536;DHT22;34330;52.08032700;5.40923460;2022-12-13T10:51:51;0.10;85.10
6536;DHT22;34330;52.08032700;5.40923460;2022-12-13T10:54:29;0.00;85.10
6536;DHT22;34330;52.08032700;5.40923460;2022-12-13T10:57:33;0.10;85.50
6536;DHT22;34330;52.08032700;5.40923460;2022-12-13T11:00:33;0.10;85.60
6536;DHT22;34330;52.08032700;5.40923460;2022-12-13T11:03:11;0.20;85.60
6536;DHT22;34330;52.08032700;5.40923460;2022-12-13T11:08:30;0.30;85.90
6536;DHT22;34330;52.08032700;5.40923460;2022-12-13T11:10:59;0.40;86.10
6536;DHT22;34330;52.08032700;5.40923460;2022-12-13T11:13:36;0.50;86.20
6536;DHT22;34330;52.08032700;5.40923460;2022-12-13T11:16:28;0.70;86.30
6536;DHT22;34330;52.08032700;5.40923460;2022-12-13T11:19:00;0.60;86.20
6536;DHT22;34330;52.08032700;5.40923460;2022-12-13T11:21:36;0.80;86.30
6536;DHT22;34330;52.08032700;5.40923460;2022-12-13T11:24:27;0.70;86.10
6536;DHT22;34330;52.08032700;5.40923460;2022-12-13T11:27:07;0.80;86.10
6536;DHT22;34330;52.08032700;5.40923460;2022-12-13T11:29:55;0.90;86.00
6536;DHT22;34330;52.08032700;5.40923460;2022-12-13T11:35:41;0.90;85.90
6536;DHT22;34330;52.08032700;5.40923460;2022-12-13T11:38:24;1.10;85.90
6536;DHT22;34330;52.08032700;5.40923460;2022-12-13T11:41:06;1.10;85.80
6536;DHT22;34330;52.08032700;5.40923460;2022-12-13T11:44:02;1.20;85.80
6536;DHT22;34330;52.08032700;5.40923460;2022-12-13T11:46:41;1.20;85.60
6536;DHT22;34330;52.08032700;5.40923460;2022-12-13T11:49:15;1.30;85.60
6536;DHT22;34330;52.08032700;5.40923460;2022-12-13T11:52:05;1.30;85.50
6536;DHT22;34330;52.08032700;5.40923460;2022-12-13T11:54:47;1.40;85.40
6536;DHT22;34330;52.08032700;5.40923460;2022-12-13T11:57:31;1.50;85.30
6536;DHT22;34330;52.08032700;5.40923460;2022-12-13T12:00:06;1.40;85.20
6536;DHT22;34330;52.08032700;5.40923460;2022-12-13T12:02:45;1.50;84.70
6536;DHT22;34330;52.08032700;5.40923460;2022-12-13T12:05:29;1.50;84.80
6536;DHT22;34330;52.08032700;5.40923460;2022-12-13T12:08:05;1.50;84.50
6536;DHT22;34330;52.08032700;5.40923460;2022-12-13T12:11:06;1.50;84.40
6536;DHT22;34330;52.08032700;5.40923460;2022-12-13T12:13:40;1.70;84.40
6536;DHT22;34330;52.08032700;5.40923460;2022-12-13T12:16:32;1.70;84.30
6536;DHT22;34330;52.08032700;5.40923460;2022-12-13T12:19:09;1.70;84.10
6536;DHT22;34330;52.08032700;5.40923460;2022-12-13T12:22:24;1.60;83.90
6536;DHT22;34330;52.08032700;5.40923460;2022-12-13T12:25:11;1.70;83.60
6536;DHT22;34330;52.08032700;5.40923460;2022-12-13T12:27:52;1.70;83.30
6536;DHT22;34330;52.08032700;5.40923460;2022-12-13T12:30:36;1.70;83.30
6536;DHT22;34330;52.08032700;5.40923460;2022-12-13T12:33:23;1.70;83.20
6536;DHT22;34330;52.08032700;5.40923460;2022-12-13T12:36:15;1.70;83.20
6536;DHT22;34330;52.08032700;5.40923460;2022-12-13T12:42:15;1.80;83.40
6536;DHT22;34330;52.08032700;5.40923460;2022-12-13T12:45:01;1.80;83.40
6536;DHT22;34330;52.08032700;5.40923460;2022-12-13T12:47:42;1.80;83.40
6536;DHT22;34330;52.08032700;5.40923460;2022-12-13T12:50:51;1.80;83.40
6536;DHT22;34330;52.08032700;5.40923460;2022-12-13T12:53:38;1.90;83.50
6536;DHT22;34330;52.08032700;5.40923460;2022-12-13T12:56:37;1.90;83.50
6536;DHT22;34330;52.08032700;5.40923460;2022-12-13T12:59:23;2.00;83.50
6536;DHT22;34330;52.08032700;5.40923460;2022-12-13T13:05:45;2.10;83.30
6536;DHT22;34330;52.08032700;5.40923460;2022-12-13T13:08:30;2.10;83.20
6536;DHT22;34330;52.08032700;5.40923460;2022-12-13T13:11:06;4.20;85.10
6536;DHT22;34330;52.08032700;5.40923460;2022-12-13T13:14:01;2.10;83.10
6536;DHT22;34330;52.08032700;5.40923460;2022-12-13T13:20:10;2.20;82.80
6536;DHT22;34330;52.08032700;5.40923460;2022-12-13T13:22:46;2.20;82.60
6536;DHT22;34330;52.08032700;5.40923460;2022-12-13T13:25:44;2.20;82.80
6536;DHT22;34330;52.08032700;5.40923460;2022-12-13T13:51:29;2.20;82.30
6536;DHT22;34330;52.08032700;5.40923460;2022-12-13T13:54:58;2.30;82.60
6536;DHT22;34330;52.08032700;5.40923460;2022-12-13T13:58:10;2.30;82.60
6536;DHT22;34330;52.08032700;5.40923460;2022-12-13T14:07:57;2.30;82.70
6536;DHT22;34330;52.08032700;5.40923460;2022-12-13T14:11:09;2.30;82.60
6536;DHT22;34330;52.08032700;5.40923460;2022-12-13T14:14:25;2.30;82.70
6536;DHT22;34330;52.08032700;5.40923460;2022-12-13T14:20:50;2.30;82.60
6536;DHT22;34330;52.08032700;5.40923460;2022-12-13T14:23:46;2.30;82.20
6536;DHT22;34330;52.08032700;5.40923460;2022-12-13T14:26:48;2.30;82.50
6536;DHT22;34330;52.08032700;5.40923460;2022-12-13T14:29:26;2.30;82.40
6536;DHT22;34330;52.08032700;5.40923460;2022-12-13T14:31:57;-0.20;80.10
6536;DHT22;34330;52.08032700;5.40923460;2022-12-13T14:37:04;3.00;82.70
6536;DHT22;34330;52.08032700;5.40923460;2022-12-13T14:39:42;2.30;82.00
6536;DHT22;34330;52.08032700;5.40923460;2022-12-13T14:42:23;2.20;81.80
6536;DHT22;34330;52.08032700;5.40923460;2022-12-13T14:45:17;2.30;81.90
6536;DHT22;34330;52.08032700;5.40923460;2022-12-13T14:47:52;2.30;82.00
6536;DHT22;34330;52.08032700;5.40923460;2022-12-13T14:50:25;2.20;81.90
6536;DHT22;34330;52.08032700;5.40923460;2022-12-13T14:53:02;2.20;81.80
6536;DHT22;34330;52.08032700;5.40923460;2022-12-13T14:55:40;2.20;81.80
6536;DHT22;34330;52.08032700;5.40923460;2022-12-13T14:58:16;2.20;81.80
6536;DHT22;34330;52.08032700;5.40923460;2022-12-13T15:00:56;2.20;81.50
6536;DHT22;34330;52.08032700;5.40923460;2022-12-13T15:06:13;2.00;81.30
6536;DHT22;34330;52.08032700;5.40923460;2022-12-13T15:08:59;2.00;81.30
6536;DHT22;34330;52.08032700;5.40923460;2022-12-13T15:11:34;2.10;81.40
6536;DHT22;34330;52.08032700;5.40923460;2022-12-13T15:14:28;2.10;81.60
6536;DHT22;34330;52.08032700;5.40923460;2022-12-13T15:25:30;2.00;81.70
6536;DHT22;34330;52.08032700;5.40923460;2022-12-13T15:28:30;1.90;81.70
6536;DHT22;34330;52.08032700;5.40923460;2022-12-13T15:31:11;1.90;81.70
6536;DHT22;34330;52.08032700;5.40923460;2022-12-13T15:37:35;1.90;81.70
6536;DHT22;34330;52.08032700;5.40923460;2022-12-13T15:40:24;1.90;81.70
6536;DHT22;34330;52.08032700;5.40923460;2022-12-13T15:46:06;1.80;81.60
6536;DHT22;34330;52.08032700;5.40923460;2022-12-13T15:48:59;1.70;81.50
6536;DHT22;34330;52.08032700;5.40923460;2022-12-13T15:51:54;1.80;81.60
6536;DHT22;34330;52.08032700;5.40923460;2022-12-13T15:57:10;1.80;81.50
6536;DHT22;34330;52.08032700;5.40923460;2022-12-13T16:00:28;1.70;81.60
6536;DHT22;34330;52.08032700;5.40923460;2022-12-13T16:03:15;1.70;81.50
6536;DHT22;34330;52.08032700;5.40923460;2022-12-13T16:08:30;1.70;81.50
6536;DHT22;34330;52.08032700;5.40923460;2022-12-13T16:11:10;1.70;81.40
6536;DHT22;34330;52.08032700;5.40923460;2022-12-13T16:14:25;1.70;81.50
6536;DHT22;34330;52.08032700;5.40923460;2022-12-13T16:26:28;1.50;81.40
6536;DHT22;34330;52.08032700;5.40923460;2022-12-13T16:29:28;1.50;81.10
6536;DHT22;34330;52.08032700;5.40923460;2022-12-13T16:32:27;1.40;81.30
6536;DHT22;34330;52.08032700;5.40923460;2022-12-13T16:35:23;1.40;81.20
6536;DHT22;34330;52.08032700;5.40923460;2022-12-13T16:38:08;1.50;81.40
6536;DHT22;34330;52.08032700;5.40923460;2022-12-13T16:40:58;1.50;81.50
6536;DHT22;34330;52.08032700;5.40923460;2022-12-13T16:43:53;1.50;81.50
6536;DHT22;34330;52.08032700;5.40923460;2022-12-13T16:46:57;1.40;81.40
6536;DHT22;34330;52.08032700;5.40923460;2022-12-13T16:52:53;1.40;81.50
6536;DHT22;34330;52.08032700;5.40923460;2022-12-13T16:58:06;1.40;81.50
6536;DHT22;34330;52.08032700;5.40923460;2022-12-13T17:00:42;1.30;81.30
6536;DHT22;34330;52.08032700;5.40923460;2022-12-13T17:03:27;1.40;81.40
6536;DHT22;34330;52.08032700;5.40923460;2022-12-13T17:08:55;1.30;81.30
6536;DHT22;34330;52.08032700;5.40923460;2022-12-13T17:13:57;1.30;81.20
6536;DHT22;34330;52.08032700;5.40923460;2022-12-13T17:16:31;1.30;81.30
6536;DHT22;34330;52.08032700;5.40923460;2022-12-13T17:21:42;1.30;81.30
6536;DHT22;34330;52.08032700;5.40923460;2022-12-13T17:32:02;1.30;81.20
6536;DHT22;34330;52.08032700;5.40923460;2022-12-13T17:37:08;1.20;81.30
6536;DHT22;34330;52.08032700;5.40923460;2022-12-13T17:39:39;1.30;81.40
6536;DHT22;34330;52.08032700;5.40923460;2022-12-13T17:42:41;1.30;81.50
6536;DHT22;34330;52.08032700;5.40923460;2022-12-13T17:45:27;1.30;81.20
6536;DHT22;34330;52.08032700;5.40923460;2022-12-13T17:47:59;1.30;81.30
6536;DHT22;34330;52.08032700;5.40923460;2022-12-13T17:50:36;1.20;81.30
6536;DHT22;34330;52.08032700;5.40923460;2022-12-13T17:58:30;1.30;81.30
6536;DHT22;34330;52.08032700;5.40923460;2022-12-13T18:01:19;1.30;81.40
6536;DHT22;34330;52.08032700;5.40923460;2022-12-13T18:04:03;1.30;81.00
6536;DHT22;34330;52.08032700;5.40923460;2022-12-13T18:12:00;1.30;81.20
6536;DHT22;34330;52.08032700;5.40923460;2022-12-13T18:14:58;1.30;81.20
6536;DHT22;34330;52.08032700;5.40923460;2022-12-13T18:17:37;4.00;83.40
6536;DHT22;34330;52.08032700;5.40923460;2022-12-13T18:22:50;1.30;80.80
6536;DHT22;34330;52.08032700;5.40923460;2022-12-13T18:25:24;1.30;80.50
6536;DHT22;34330;52.08032700;5.40923460;2022-12-13T18:30:55;1.30;80.80
6536;DHT22;34330;52.08032700;5.40923460;2022-12-13T18:33:31;1.30;80.80
6536;DHT22;34330;52.08032700;5.40923460;2022-12-13T18:36:06;1.20;79.60
6536;DHT22;34330;52.08032700;5.40923460;2022-12-13T18:38:37;1.20;80.60
6536;DHT22;34330;52.08032700;5.40923460;2022-12-13T18:41:11;1.20;80.70
6536;DHT22;34330;52.08032700;5.40923460;2022-12-13T18:44:17;1.20;80.30
6536;DHT22;34330;52.08032700;5.40923460;2022-12-13T18:47:10;1.20;80.50
6536;DHT22;34330;52.08032700;5.40923460;2022-12-13T18:49:59;1.20;80.30
6536;DHT22;34330;52.08032700;5.40923460;2022-12-13T18:55:13;1.20;80.30
6536;DHT22;34330;52.08032700;5.40923460;2022-12-13T19:00:24;1.10;80.10
6536;DHT22;34330;52.08032700;5.40923460;2022-12-13T19:02:56;4.10;82.60
6536;DHT22;34330;52.08032700;5.40923460;2022-12-13T19:10:55;1.10;80.10
6536;DHT22;34330;52.08032700;5.40923460;2022-12-13T19:13:50;1.00;79.90
6536;DHT22;34330;52.08032700;5.40923460;2022-12-13T19:16:58;1.10;80.10
6536;DHT22;34330;52.08032700;5.40923460;2022-12-13T19:24:34;1.10;79.90
6536;DHT22;34330;52.08032700;5.40923460;2022-12-13T19:27:05;1.10;79.90
6536;DHT22;34330;52.08032700;5.40923460;2022-12-13T19:29:36;1.10;79.90
6536;DHT22;34330;52.08032700;5.40923460;2022-12-13T19:34:40;1.00;79.80
6536;DHT22;34330;52.08032700;5.40923460;2022-12-13T19:37:09;1.00;79.70
6536;DHT22;34330;52.08032700;5.40923460;2022-12-13T19:39:38;1.00;79.80
6536;DHT22;34330;52.08032700;5.40923460;2022-12-13T19:42:12;1.10;79.90
6536;DHT22;34330;52.08032700;5.40923460;2022-12-13T19:49:54;1.10;79.90
6536;DHT22;34330;52.08032700;5.40923460;2022-12-13T19:54:54;1.00;79.70